Time;durP1;ratioP1;P1;durP2;ratioP2;P2;SDS_P1;SDS_P2;PMS_P1;PMS_P2;Temp;Humidity;BMP_temperature;BMP_pressure;BME280_temperature;BME280_humidity;BME280_pressure;Samples;Min_cycle;Max_cycle;Signal;HPM_P1;HPM_P2
2022/09/12 00:01:22;;;;;;;3.92;1.20;;;;;;;12.25;68.97;93078.69;2047447;70;20218;-76
2022/09/12 00:03:57;;;;;;;2.17;1.00;;;;;;;12.25;68.45;93073.03;2043795;70;20322;-77
2022/09/12 00:06:27;;;;;;;3.25;1.20;;;;;;;12.28;68.11;93063.34;2047279;70;20166;-77
2022/09/12 00:08:59;;;;;;;2.30;1.30;;;;;;;12.22;68.54;93068.59;2048456;70;20218;-76
2022/09/12 00:11:25;;;;;;;1.38;1.00;;;;;;;12.29;67.36;93064.81;2046034;70;20174;-76
2022/09/12 00:14:00;;;;;;;2.08;1.20;;;;;;;11.97;69.64;93072.03;2050380;70;20226;-76
2022/09/12 00:16:29;;;;;;;2.53;1.10;;;;;;;12.15;68.65;93066.78;2050700;70;20693;-77
2022/09/12 00:18:55;;;;;;;2.70;1.20;;;;;;;12.15;68.58;93067.50;2049563;70;20185;-76
2022/09/12 00:21:21;;;;;;;1.60;1.17;;;;;;;12.16;68.47;93068.25;2048831;70;20189;-77
2022/09/12 00:23:47;;;;;;;1.98;1.35;;;;;;;12.07;68.61;93063.47;2049794;70;20182;-76
2022/09/12 00:26:17;;;;;;;2.53;1.00;;;;;;;12.03;68.82;93068.84;2036487;70;20161;-76
2022/09/12 00:28:45;;;;;;;1.98;1.10;;;;;;;12.03;68.46;93069.59;2043902;70;20557;-77
2022/09/12 00:31:17;;;;;;;6.53;1.20;;;;;;;11.97;68.93;93074.88;2046376;70;20190;-77
2022/09/12 00:33:43;;;;;;;2.25;1.20;;;;;;;11.95;68.88;93071.91;2047132;70;20158;-76
2022/09/12 00:36:13;;;;;;;3.67;1.10;;;;;;;11.96;68.37;93067.75;2046330;70;20274;-76
2022/09/12 00:38:40;;;;;;;2.80;1.70;;;;;;;11.92;68.71;93073.88;2043870;70;20638;-77
2022/09/12 00:41:21;;;;;;;4.43;1.30;;;;;;;11.93;68.90;93066.88;2048020;70;20641;-77
2022/09/12 00:43:51;;;;;;;3.72;1.15;;;;;;;11.85;69.65;93069.19;2046990;70;20662;-76
2022/09/12 00:46:19;;;;;;;2.30;1.23;;;;;;;11.88;68.97;93062.34;2048699;70;20211;-77
2022/09/12 00:48:51;;;;;;;1.77;1.20;;;;;;;11.86;69.26;93059.38;2050128;70;20621;-74
2022/09/12 00:51:18;;;;;;;2.75;1.20;;;;;;;12.09;67.17;93061.47;2049907;70;20154;-76
2022/09/12 00:53:47;;;;;;;1.55;1.10;;;;;;;11.86;69.41;93059.38;2050542;70;20233;-74
2022/09/12 00:56:16;;;;;;;4.55;1.10;;;;;;;11.69;70.43;93059.72;2046170;70;20299;-76
2022/09/12 00:59:23;;;;;;;2.25;1.13;;;;;;;11.70;70.37;93059.09;2046709;70;20229;-75
2022/09/12 01:01:50;;;;;;;2.15;1.20;;;;;;;11.67;70.34;93045.47;2046753;70;20146;-76
2022/09/12 01:04:18;;;;;;;2.60;1.02;;;;;;;11.70;69.04;93044.25;2047009;70;20214;-75
2022/09/12 01:06:45;;;;;;;1.73;1.20;;;;;;;11.68;70.03;93036.41;2049199;70;20150;-75
2022/09/12 01:09:16;;;;;;;3.22;1.33;;;;;;;11.65;70.71;93034.06;2049977;70;20174;-76
2022/09/12 01:11:45;;;;;;;5.00;1.27;;;;;;;11.67;69.67;93034.19;2050056;70;20647;-75
2022/09/12 01:14:12;;;;;;;2.70;1.67;;;;;;;11.31;71.22;93032.63;2050241;70;20226;-76
2022/09/12 01:16:38;;;;;;;1.38;1.17;;;;;;;11.45;70.94;93027.88;2051742;70;20150;-76
2022/09/12 01:19:30;;;;;;;5.32;1.50;;;;;;;11.60;69.07;93035.19;2050328;70;20562;-75
2022/09/12 01:22:21;;;;;;;2.45;0.90;;;;;;;11.60;69.44;93023.91;2050907;70;20127;-74
2022/09/12 01:24:59;;;;;;;4.28;1.10;;;;;;;11.68;69.38;93022.31;2051830;70;20520;-74
2022/09/12 01:27:42;;;;;;;3.47;0.93;;;;;;;11.73;68.80;93017.66;2052866;70;20249;-75
2022/09/12 01:30:32;;;;;;;1.10;1.00;;;;;;;11.53;69.92;93017.13;2052620;70;21181;-76
2022/09/12 01:33:23;;;;;;;1.20;1.05;;;;;;;11.40;70.12;93009.25;2051800;70;20230;-75
2022/09/12 01:35:48;;;;;;;2.60;1.20;;;;;;;11.33;71.14;93015.88;2051049;70;20582;-75
2022/09/12 01:38:33;;;;;;;2.25;1.10;;;;;;;11.50;69.72;93009.16;2051684;70;20150;-75
2022/09/12 01:41:15;;;;;;;2.58;1.10;;;;;;;11.51;69.52;93008.56;2053472;70;20134;-75
2022/09/12 01:43:50;;;;;;;1.30;0.98;;;;;;;11.61;69.42;93006.34;2046625;70;20178;-75
2022/09/12 01:46:18;;;;;;;3.70;0.80;;;;;;;11.60;69.33;93004.16;2049624;70;20174;-75
2022/09/12 01:48:50;;;;;;;4.07;1.00;;;;;;;11.54;69.41;93003.75;2050531;70;20151;-76
2022/09/12 01:51:30;;;;;;;3.13;1.10;;;;;;;11.53;68.78;93003.03;2049980;70;20162;-75
2022/09/12 01:54:40;;;;;;;7.32;0.95;;;;;;;11.60;68.99;92998.50;2044884;70;20219;-75
2022/09/12 01:57:18;;;;;;;1.58;0.90;;;;;;;11.57;69.49;92991.28;2030891;70;20140;-75
2022/09/12 01:59:48;;;;;;;1.38;0.90;;;;;;;11.47;69.66;92990.66;2037037;70;20358;-75
2022/09/12 02:02:24;;;;;;;2.60;1.00;;;;;;;11.38;69.72;92992.22;2036556;70;20156;-75
2022/09/12 02:04:59;;;;;;;5.60;1.10;;;;;;;11.32;69.75;92989.78;2036657;70;20243;-75
2022/09/12 02:07:31;;;;;;;1.42;1.08;;;;;;;11.42;69.10;92998.84;2036957;70;20147;-75
2022/09/12 02:10:01;;;;;;;5.35;1.20;;;;;;;11.39;68.99;92997.25;2036885;70;20667;-75
2022/09/12 02:12:34;;;;;;;1.23;1.10;;;;;;;11.32;69.60;92998.22;2036381;70;20596;-75
2022/09/12 02:15:06;;;;;;;1.52;1.08;;;;;;;11.29;69.55;93001.53;2037101;70;20212;-75
2022/09/12 02:17:37;;;;;;;1.25;0.95;;;;;;;11.23;70.41;92992.69;2036639;70;20187;-75
2022/09/12 02:20:27;;;;;;;3.05;0.95;;;;;;;11.37;68.76;92993.56;2036485;70;20151;-75
2022/09/12 02:22:55;;;;;;;2.78;1.00;;;;;;;11.03;70.33;92992.84;2036811;70;20148;-74
2022/09/12 02:25:22;;;;;;;2.63;1.05;;;;;;;11.11;70.21;92995.47;2036945;70;20182;-75
2022/09/12 02:27:48;;;;;;;1.30;0.82;;;;;;;11.14;69.86;92991.44;2036840;70;20155;-75
2022/09/12 02:30:15;;;;;;;1.67;1.10;;;;;;;11.15;69.41;92987.28;2036690;70;20223;-74
2022/09/12 02:32:44;;;;;;;3.47;1.00;;;;;;;11.09;70.04;92992.53;2039332;70;20150;-76
2022/09/12 02:35:30;;;;;;;2.55;1.10;;;;;;;11.13;69.81;92998.41;2050085;70;20245;-74
2022/09/12 02:38:05;;;;;;;1.08;0.90;;;;;;;11.17;69.67;92987.38;2044344;70;20245;-75
2022/09/12 02:40:33;;;;;;;3.80;1.00;;;;;;;11.11;69.49;92984.94;2044055;70;20515;-75
2022/09/12 02:42:59;;;;;;;1.08;0.98;;;;;;;11.13;68.82;92990.72;2047383;70;20162;-75
2022/09/12 02:45:26;;;;;;;1.38;1.23;;;;;;;10.93;70.25;92989.41;2050280;70;20249;-75
2022/09/12 02:48:13;;;;;;;4.88;1.20;;;;;;;10.98;69.88;92993.94;2050722;70;20598;-76
2022/09/12 02:50:40;;;;;;;2.70;1.20;;;;;;;10.93;69.54;92983.78;2050848;70;20148;-75
2022/09/12 02:53:08;;;;;;;3.65;1.63;;;;;;;10.85;70.30;92986.06;2049263;70;20149;-75
2022/09/12 02:55:35;;;;;;;4.38;1.30;;;;;;;10.99;69.22;92986.22;2048757;70;20197;-75
2022/09/12 02:58:03;;;;;;;1.65;1.20;;;;;;;10.74;70.31;92987.50;2047258;70;20193;-76
2022/09/12 03:00:36;;;;;;;3.08;1.40;;;;;;;10.68;70.76;92992.75;2045217;70;20571;-75
2022/09/12 03:03:02;;;;;;;;;;;;;;;10.80;70.27;92987.16;2044563;70;20193;-76
2022/09/12 03:05:41;;;;;;;4.00;1.10;;;;;;;10.75;70.36;92982.59;2049069;70;20050;-75
2022/09/12 03:08:21;;;;;;;1.90;1.10;;;;;;;10.79;69.55;92983.59;2047314;70;20123;-75
2022/09/12 03:10:56;;;;;;;2.58;0.90;;;;;;;10.76;69.86;92984.06;2046944;70;20158;-74
2022/09/12 03:13:32;;;;;;;10.50;1.63;;;;;;;10.83;69.47;92983.13;2047277;70;20186;-75
2022/09/12 03:16:39;;;;;;;3.22;1.60;;;;;;;10.67;70.29;92980.00;2048194;70;20526;-75
2022/09/12 03:19:36;;;;;;;3.35;1.30;;;;;;;10.70;70.17;92984.41;2034272;70;20144;-74
2022/09/12 03:22:28;;;;;;;4.82;1.00;;;;;;;10.71;69.73;92980.25;2047809;70;20194;-74
2022/09/12 03:25:00;;;;;;;4.88;1.40;;;;;;;10.74;69.22;92978.31;2047352;70;20158;-75
2022/09/12 03:27:43;;;;;;;2.05;0.95;;;;;;;10.66;69.96;92978.53;2047625;70;20254;-75
2022/09/12 03:30:11;;;;;;;1.17;1.00;;;;;;;10.63;69.71;92974.84;2048581;70;20456;-75
2022/09/12 03:32:47;;;;;;;2.47;1.20;;;;;;;10.58;69.31;92975.16;2050390;70;20141;-75
2022/09/12 03:35:14;;;;;;;2.50;1.20;;;;;;;10.60;69.42;92975.31;2050807;70;20242;-75
2022/09/12 03:37:41;;;;;;;2.28;1.00;;;;;;;10.67;68.63;92969.47;2048034;70;20175;-75
2022/09/12 03:40:08;;;;;;;4.90;1.30;;;;;;;10.55;69.61;92965.88;2047772;70;20340;-75
2022/09/12 03:42:34;;;;;;;1.70;1.00;;;;;;;10.53;70.32;92970.63;2050110;70;20527;-75
2022/09/12 03:45:00;;;;;;;3.95;1.60;;;;;;;10.29;71.49;92969.78;2050673;70;20582;-75
2022/09/12 03:47:26;;;;;;;3.15;1.58;;;;;;;10.36;70.94;92969.56;2050609;70;20187;-76
2022/09/12 03:49:51;;;;;;;1.80;1.00;;;;;;;10.31;71.78;92965.03;2049122;70;20189;-76
2022/09/12 03:52:18;;;;;;;1.10;0.77;;;;;;;10.54;70.25;92967.22;2049935;70;20150;-75
2022/09/12 03:54:43;;;;;;;3.83;0.90;;;;;;;10.59;69.21;92973.84;2050898;70;20146;-76
2022/09/12 03:57:09;;;;;;;0.85;0.70;;;;;;;10.56;69.69;92970.16;2050415;70;20154;-75
2022/09/12 03:59:35;;;;;;;1.55;0.80;;;;;;;10.59;69.61;92971.03;2049218;70;20161;-75
2022/09/12 04:02:01;;;;;;;2.63;0.90;;;;;;;10.69;68.85;92966.78;2047724;70;20463;-75
2022/09/12 04:04:26;;;;;;;5.20;1.15;;;;;;;10.57;69.79;92968.06;2046982;70;20155;-77
2022/09/12 04:06:52;;;;;;;2.17;1.30;;;;;;;10.60;69.08;92967.59;2046573;70;20174;-75
2022/09/12 04:09:18;;;;;;;3.17;1.10;;;;;;;10.45;70.38;92967.31;2046681;70;20589;-75
2022/09/12 04:11:43;;;;;;;3.40;1.00;;;;;;;10.55;69.63;92968.69;2045533;70;20161;-75
2022/09/12 04:14:09;;;;;;;5.05;0.80;;;;;;;10.57;69.80;92974.44;2050787;70;20238;-75
2022/09/12 04:16:35;;;;;;;2.20;0.93;;;;;;;10.60;69.08;92978.13;2046511;70;20182;-75
2022/09/12 04:19:00;;;;;;;3.47;1.10;;;;;;;10.43;69.73;92970.69;2046651;70;20245;-75
2022/09/12 04:21:26;;;;;;;1.63;0.88;;;;;;;10.30;70.52;92974.78;2046858;70;20282;-75
2022/09/12 04:23:52;;;;;;;2.65;0.77;;;;;;;10.37;69.86;92968.22;2044571;70;20200;-75
2022/09/12 04:26:18;;;;;;;1.27;0.95;;;;;;;10.34;70.19;92968.69;2048403;70;20664;-75
2022/09/12 04:28:45;;;;;;;2.47;0.80;;;;;;;10.38;69.75;92969.69;2044912;70;20474;-76
2022/09/12 04:31:16;;;;;;;3.55;1.48;;;;;;;9.93;72.41;92975.13;2045998;70;20154;-74
2022/09/12 04:33:42;;;;;;;5.25;1.20;;;;;;;10.16;70.96;92963.31;2047117;70;20194;-75
2022/09/12 04:36:10;;;;;;;2.00;1.30;;;;;;;10.23;70.24;92970.09;2046677;70;20206;-76
2022/09/12 04:38:37;;;;;;;5.28;1.30;;;;;;;10.23;70.54;92970.09;2047517;70;20142;-75
2022/09/12 04:41:14;;;;;;;2.05;1.10;;;;;;;10.21;70.02;92969.19;2047799;70;20242;-75
2022/09/12 04:43:40;;;;;;;1.92;1.00;;;;;;;10.16;70.19;92968.94;2049589;70;20161;-75
2022/09/12 04:46:10;;;;;;;2.30;1.20;;;;;;;10.09;70.73;92978.31;2050109;70;20176;-75
2022/09/12 04:48:37;;;;;;;1.77;1.10;;;;;;;10.13;70.50;92981.41;2051788;70;20177;-75
2022/09/12 04:51:15;;;;;;;4.13;0.90;;;;;;;10.17;69.59;92978.09;2050622;70;20184;-76
2022/09/12 04:53:41;;;;;;;4.82;1.08;;;;;;;10.11;70.62;92972.09;2050337;70;20146;-75
2022/09/12 04:56:10;;;;;;;3.00;1.08;;;;;;;10.11;70.05;92974.91;2050605;70;20185;-75
2022/09/12 04:58:37;;;;;;;3.60;0.90;;;;;;;10.13;69.86;92977.84;2050721;70;20253;-75
2022/09/12 05:01:07;;;;;;;1.52;1.10;;;;;;;10.09;70.45;92981.13;2049911;70;20280;-76
2022/09/12 05:03:34;;;;;;;4.38;1.00;;;;;;;10.05;70.15;92980.84;2053212;70;20181;-76
2022/09/12 05:06:04;;;;;;;4.10;1.30;;;;;;;10.13;69.70;92986.28;2051118;70;20662;-75
2022/09/12 05:08:34;;;;;;;4.45;1.40;;;;;;;10.04;70.81;92987.09;2050441;70;20157;-76
2022/09/12 05:11:20;;;;;;;3.75;1.17;;;;;;;9.95;71.32;92983.00;2050732;70;20237;-76
2022/09/12 05:13:46;;;;;;;2.97;1.10;;;;;;;9.76;72.46;92991.50;2053365;70;20154;-75
2022/09/12 05:16:14;;;;;;;6.78;1.20;;;;;;;9.83;71.72;92987.78;2051450;70;20177;-76
2022/09/12 05:18:40;;;;;;;1.88;1.10;;;;;;;9.92;71.21;92989.81;2053369;70;20154;-75
2022/09/12 05:21:09;;;;;;;4.72;1.40;;;;;;;9.96;70.73;92986.53;2050538;70;20505;-76
2022/09/12 05:23:35;;;;;;;23.40;1.88;;;;;;;9.89;71.47;92991.72;2049855;70;20154;-75
2022/09/12 05:26:02;;;;;;;16.23;1.67;;;;;;;9.89;71.26;92996.63;2052584;70;20153;-75
2022/09/12 05:28:33;;;;;;;1.88;1.23;;;;;;;9.90;70.79;92998.13;2050743;70;20142;-75
2022/09/12 05:31:07;;;;;;;5.03;1.30;;;;;;;9.93;70.81;93008.16;2048004;70;20154;-74
2022/09/12 05:33:34;;;;;;;1.88;1.40;;;;;;;9.88;71.14;92998.69;2050719;70;20277;-75
2022/09/12 05:36:01;;;;;;;4.30;1.20;;;;;;;9.95;70.63;93001.94;2053597;70;20134;-74
2022/09/12 05:38:28;;;;;;;3.97;1.38;;;;;;;9.95;71.00;93008.31;2050702;70;20248;-74
2022/09/12 05:41:05;;;;;;;1.63;1.23;;;;;;;9.90;71.40;93007.28;2049345;70;20217;-74
2022/09/12 05:43:34;;;;;;;3.13;1.20;;;;;;;9.88;72.01;92998.69;2049944;69;20541;-74
2022/09/12 05:46:06;;;;;;;3.63;1.60;;;;;;;10.02;70.65;93007.38;2054780;69;20214;-74
2022/09/12 05:48:34;;;;;;;2.50;1.30;;;;;;;9.95;71.03;93004.75;2054666;69;20207;-75
2022/09/12 05:51:06;;;;;;;2.58;1.00;;;;;;;10.06;70.24;93001.28;2055683;69;20150;-74
2022/09/12 05:53:31;;;;;;;2.78;0.90;;;;;;;10.12;70.33;93004.50;2054685;69;20228;-74
2022/09/12 05:56:12;;;;;;;5.55;1.65;;;;;;;9.99;70.68;93008.59;2053991;70;20153;-74
2022/09/12 05:58:43;;;;;;;4.05;1.48;;;;;;;10.10;70.17;93005.09;2053987;70;20592;-76
2022/09/12 06:01:11;;;;;;;3.10;2.05;;;;;;;9.81;71.72;93010.88;2053283;69;20145;-73
2022/09/12 06:03:49;;;;;;;3.50;2.17;;;;;;;9.98;71.03;93006.34;2053131;69;20193;-75
2022/09/12 06:06:17;;;;;;;5.60;1.42;;;;;;;9.98;71.66;93003.53;2054053;69;20149;-75
2022/09/12 06:08:46;;;;;;;1.33;1.00;;;;;;;10.00;70.45;93000.88;2055519;69;20142;-74
2022/09/12 06:11:27;;;;;;;1.85;0.88;;;;;;;10.09;70.80;93009.25;2052938;69;20209;-74
2022/09/12 06:13:55;;;;;;;2.25;1.58;;;;;;;10.02;70.61;93009.44;2053270;69;20183;-77
2022/09/12 06:16:23;;;;;;;4.30;2.08;;;;;;;9.86;72.09;93009.09;2051046;70;20155;-75
2022/09/12 06:18:54;;;;;;;6.55;3.60;;;;;;;9.89;71.78;93013.50;2053002;69;20182;-75
2022/09/12 06:21:21;;;;;;;3.60;2.30;;;;;;;9.96;70.67;93006.97;2052247;69;20154;-75
2022/09/12 06:23:47;;;;;;;4.50;1.80;;;;;;;10.07;70.71;93008.38;2051293;69;20610;-75
2022/09/12 06:26:15;;;;;;;3.08;1.50;;;;;;;9.92;71.57;93012.31;2052032;69;20212;-74
2022/09/12 06:28:43;;;;;;;1.63;1.10;;;;;;;10.09;70.59;93012.06;2053506;69;20150;-75
2022/09/12 06:31:12;;;;;;;2.60;1.35;;;;;;;10.10;69.49;93002.28;2054779;69;20158;-75
2022/09/12 06:33:40;;;;;;;3.28;1.33;;;;;;;10.07;69.70;93002.75;2054352;69;20143;-75
2022/09/12 06:36:21;;;;;;;3.40;1.38;;;;;;;9.94;69.11;93006.81;2051369;70;20247;-74
2022/09/12 06:38:50;;;;;;;2.42;1.80;;;;;;;10.07;68.60;93003.47;2054480;70;20134;-74
2022/09/12 06:41:16;;;;;;;3.83;1.70;;;;;;;10.24;67.68;93005.34;2054250;70;20158;-76
2022/09/12 06:43:43;;;;;;;2.17;1.45;;;;;;;10.21;69.02;92998.06;2056238;69;20188;-75
2022/09/12 06:46:09;;;;;;;1.73;1.33;;;;;;;10.20;69.42;92999.41;2056254;69;20184;-75
2022/09/12 06:48:36;;;;;;;2.35;1.20;;;;;;;10.23;69.91;93005.94;2054917;69;20268;-75
2022/09/12 06:51:08;;;;;;;1.40;1.30;;;;;;;10.25;69.19;92989.94;2056415;69;20145;-75
2022/09/12 06:53:35;;;;;;;6.13;1.52;;;;;;;10.39;69.45;92998.56;2056801;69;20308;-75
2022/09/12 06:56:13;;;;;;;1.92;1.40;;;;;;;10.75;68.79;92993.88;2057711;69;20230;-76
2022/09/12 06:58:40;;;;;;;2.78;1.38;;;;;;;11.01;69.35;92998.38;2054866;69;20146;-77
2022/09/12 07:01:11;;;;;;;3.78;1.70;;;;;;;11.10;70.15;92994.72;2054837;69;20248;-76
2022/09/12 07:03:38;;;;;;;2.95;1.67;;;;;;;11.18;69.41;92994.53;2057692;69;20176;-77
2022/09/12 07:06:06;;;;;;;5.70;1.80;;;;;;;11.61;68.92;92991.53;2058108;69;20153;-76
2022/09/12 07:08:32;;;;;;;7.20;2.10;;;;;;;11.90;67.69;92991.91;2058232;69;20144;-75
2022/09/12 07:11:09;;;;;;;5.32;1.88;;;;;;;12.31;65.82;92985.88;2057102;69;20185;-76
2022/09/12 07:13:35;;;;;;;2.42;1.80;;;;;;;12.60;65.31;92991.09;2057646;69;20146;-76
2022/09/12 07:16:01;;;;;;;5.70;1.75;;;;;;;12.95;66.08;92987.41;2058212;69;20195;-75
2022/09/12 07:18:29;;;;;;;7.28;2.00;;;;;;;13.09;63.49;92982.56;2058049;69;20137;-76
2022/09/12 07:20:55;;;;;;;4.15;1.70;;;;;;;14.14;65.68;92989.66;2056892;69;20613;-74
2022/09/12 07:23:20;;;;;;;3.45;1.35;;;;;;;15.31;59.69;92982.03;2056526;69;20322;-75
2022/09/12 07:25:57;;;;;;;3.83;1.63;;;;;;;14.01;61.58;92976.22;2058036;69;20223;-77
2022/09/12 07:28:28;;;;;;;1.90;1.20;;;;;;;14.92;57.61;92977.31;2058152;69;20180;-76
2022/09/12 07:30:54;;;;;;;4.68;1.70;;;;;;;15.52;56.61;92978.75;2050588;69;20153;-76
2022/09/12 07:33:26;;;;;;;4.97;1.52;;;;;;;15.60;57.77;92975.59;2058323;69;20144;-75
2022/09/12 07:35:55;;;;;;;3.33;1.47;;;;;;;16.82;53.83;92979.59;2058087;69;20699;-76
2022/09/12 07:38:21;;;;;;;3.67;1.60;;;;;;;16.17;54.69;92978.22;2055894;69;20161;-76
2022/09/12 07:40:47;;;;;;;6.30;2.92;;;;;;;16.93;52.21;92970.81;2054839;69;20157;-76
2022/09/12 07:43:13;;;;;;;10.95;5.57;;;;;;;16.24;54.61;92977.09;2058094;69;20164;-76
2022/09/12 07:45:41;;;;;;;10.32;5.40;;;;;;;17.57;52.26;92976.94;2057914;69;20161;-77
2022/09/12 07:48:09;;;;;;;6.32;2.80;;;;;;;17.67;51.41;92971.63;2058069;69;20223;-76
2022/09/12 07:50:35;;;;;;;6.50;1.88;;;;;;;18.83;47.78;92971.59;2056829;69;20146;-77
2022/09/12 07:53:02;;;;;;;3.55;1.70;;;;;;;16.93;52.72;92972.94;2057182;69;20154;-76
2022/09/12 07:55:29;;;;;;;5.30;1.50;;;;;;;16.60;51.26;92965.84;2058027;69;20471;-76
2022/09/12 07:57:55;;;;;;;2.42;1.50;;;;;;;18.04;52.31;92975.91;2058125;69;20141;-76
2022/09/12 08:00:21;;;;;;;4.30;1.75;;;;;;;17.26;52.92;92975.72;2056958;69;20149;-77
2022/09/12 08:02:52;;;;;;;3.30;1.42;;;;;;;17.65;51.85;92980.09;2058023;69;20150;-77
2022/09/12 08:05:19;;;;;;;2.22;1.30;;;;;;;19.24;49.05;92976.56;2057953;69;20606;-76
2022/09/12 08:07:45;;;;;;;1.88;1.23;;;;;;;17.84;50.73;92972.28;2058005;69;20599;-77
2022/09/12 08:10:11;;;;;;;2.78;1.40;;;;;;;18.21;52.02;92969.41;2057458;69;20264;-77
2022/09/12 08:12:37;;;;;;;2.67;1.10;;;;;;;19.61;48.88;92967.09;2056032;69;20146;-75
2022/09/12 08:15:03;;;;;;;1.50;0.73;;;;;;;20.24;45.26;92962.53;2054686;70;20220;-75
2022/09/12 08:17:28;;;;;;;2.65;0.68;;;;;;;19.23;48.98;92960.84;2054818;69;20154;-76
2022/09/12 08:19:55;;;;;;;2.08;0.70;;;;;;;19.19;47.24;92960.69;2054569;69;20544;-75
2022/09/12 08:22:21;;;;;;;1.65;0.70;;;;;;;19.12;47.10;92961.91;2056850;69;20743;-75
2022/09/12 08:24:47;;;;;;;1.70;0.98;;;;;;;19.96;45.61;92954.59;2058077;69;20229;-76
2022/09/12 08:27:13;;;;;;;1.05;0.50;;;;;;;19.47;47.06;92955.94;2057877;69;20200;-75
2022/09/12 08:29:39;;;;;;;0.90;0.70;;;;;;;21.81;41.52;92952.38;2057266;69;20158;-76
2022/09/12 08:32:08;;;;;;;2.00;0.50;;;;;;;20.66;42.77;92953.72;2056379;69;20138;-76
2022/09/12 08:34:35;;;;;;;1.73;0.63;;;;;;;20.17;41.00;92941.63;2058052;69;20198;-76
2022/09/12 08:37:01;;;;;;;2.03;0.85;;;;;;;19.83;41.98;92943.47;2058102;69;20138;-77
2022/09/12 08:39:27;;;;;;;1.02;0.85;;;;;;;20.17;44.02;92944.50;2054464;69;20161;-76
2022/09/12 08:42:04;;;;;;;1.30;0.55;;;;;;;20.54;40.90;92929.13;2056956;69;20487;-76
2022/09/12 08:45:09;;;;;;;1.17;0.70;;;;;;;21.27;42.18;92943.88;2056843;69;20158;-77
2022/09/12 08:47:39;;;;;;;1.00;0.57;;;;;;;21.12;41.39;92931.38;2058215;69;20589;-77
2022/09/12 08:50:14;;;;;;;1.60;0.70;;;;;;;20.89;41.84;92929.31;2058024;69;20168;-77
2022/09/12 08:53:02;;;;;;;1.35;0.70;;;;;;;21.40;40.89;92933.50;2055988;69;20150;-77
2022/09/12 08:55:35;;;;;;;0.82;0.70;;;;;;;21.64;42.09;92922.63;2051316;70;20142;-76
2022/09/12 08:58:13;;;;;;;1.27;0.60;;;;;;;23.97;38.56;92919.16;2051363;70;20192;-77
2022/09/12 09:00:47;;;;;;;0.60;0.60;;;;;;;23.13;40.43;92914.19;2051220;70;20154;-77
2022/09/12 09:03:43;;;;;;;0.82;0.68;;;;;;;22.30;37.06;92916.91;2052386;69;20561;-77
2022/09/12 09:06:35;;;;;;;1.95;0.82;;;;;;;22.01;40.80;92906.97;2057691;69;20241;-76
2022/09/12 09:09:18;;;;;;;1.88;0.40;;;;;;;24.55;36.43;92906.97;2058018;69;20166;-77
2022/09/12 09:11:53;;;;;;;3.28;0.80;;;;;;;22.83;37.04;92902.88;2053819;69;20137;-76
2022/09/12 09:14:48;;;;;;;0.52;0.52;;;;;;;22.35;38.14;92894.78;2058077;69;20156;-77
2022/09/12 09:17:19;;;;;;;2.05;0.70;;;;;;;23.03;37.90;92893.91;2055705;69;20272;-77
2022/09/12 09:19:55;;;;;;;0.75;0.57;;;;;;;23.01;38.43;92891.03;2054457;69;20201;-77
2022/09/12 09:22:41;;;;;;;1.75;0.60;;;;;;;23.19;36.96;92891.34;2056114;69;20161;-76
2022/09/12 09:25:16;;;;;;;0.88;0.82;;;;;;;24.19;39.19;92889.97;2057310;69;20605;-77
2022/09/12 09:27:47;;;;;;;0.63;0.60;;;;;;;24.80;35.77;92887.84;2057335;69;21010;-75
2022/09/12 09:30:20;;;;;;;0.65;0.60;;;;;;;25.19;36.48;92882.47;2057837;69;20153;-75
2022/09/12 09:32:51;;;;;;;3.90;0.60;;;;;;;25.61;34.48;92887.13;2057438;69;20668;-76
2022/09/12 09:35:51;;;;;;;1.05;0.70;;;;;;;23.47;34.67;92876.69;2057775;69;20217;-76
2022/09/12 09:38:35;;;;;;;2.97;0.55;;;;;;;24.49;36.24;92878.13;2057433;69;20262;-75
2022/09/12 09:41:23;;;;;;;1.50;0.50;;;;;;;25.68;34.40;92880.00;2056708;69;20165;-75
2022/09/12 09:43:49;;;;;;;1.77;0.80;;;;;;;24.55;33.74;92865.97;2055554;69;20145;-75
2022/09/12 09:46:15;;;;;;;0.63;0.60;;;;;;;26.27;33.61;92871.72;2057670;69;20535;-77
2022/09/12 09:48:44;;;;;;;0.73;0.60;;;;;;;24.49;33.37;92863.03;2054213;69;20601;-75
2022/09/12 09:51:12;;;;;;;3.95;0.77;;;;;;;25.96;34.34;92865.06;2057841;69;20589;-75
2022/09/12 09:53:51;;;;;;;1.20;0.60;;;;;;;26.86;30.83;92860.41;2055114;69;20169;-76
2022/09/12 09:56:28;;;;;;;0.80;0.65;;;;;;;26.39;32.41;92859.53;2057912;69;20176;-78
2022/09/12 09:58:54;;;;;;;0.65;0.55;;;;;;;27.03;32.38;92860.44;2057759;69;20595;-76
2022/09/12 10:01:20;;;;;;;1.27;0.40;;;;;;;27.29;30.31;92863.38;2057893;69;20200;-78
2022/09/12 10:03:54;;;;;;;3.63;0.60;;;;;;;27.03;29.84;92858.28;2056899;69;20473;-77
2022/09/12 10:06:22;;;;;;;0.50;0.50;;;;;;;26.74;30.15;92851.72;2054171;69;20525;-77
2022/09/12 10:08:49;;;;;;;0.60;0.60;;;;;;;27.23;31.04;92845.34;2057778;69;20577;-75
2022/09/12 10:11:14;;;;;;;2.28;0.63;;;;;;;27.56;30.82;92846.06;2057588;69;20161;-74
2022/09/12 10:13:52;;;;;;;0.85;0.50;;;;;;;25.92;28.75;92844.13;2057542;69;20154;-74
2022/09/12 10:16:21;;;;;;;1.30;0.60;;;;;;;27.90;29.14;92838.81;2057545;69;20150;-75
2022/09/12 10:18:49;;;;;;;1.38;0.85;;;;;;;28.18;28.11;92832.97;2056952;69;20629;-74
2022/09/12 10:21:29;;;;;;;3.30;0.63;;;;;;;27.79;27.34;92829.44;2054590;70;20156;-75
2022/09/12 10:24:26;;;;;;;1.83;0.50;;;;;;;27.46;28.25;92822.94;2055551;69;20249;-75
2022/09/12 10:26:54;;;;;;;0.43;0.40;;;;;;;28.74;28.68;92821.88;2054875;69;20177;-75
2022/09/12 10:29:32;;;;;;;2.53;0.80;;;;;;;28.00;28.25;92824.34;2054872;69;20205;-75
2022/09/12 10:32:02;;;;;;;1.30;0.50;;;;;;;28.79;27.80;92818.22;2055246;70;20311;-75
2022/09/12 10:34:37;;;;;;;2.10;0.60;;;;;;;27.85;25.76;92823.63;2056304;69;20689;-74
2022/09/12 10:37:08;;;;;;;0.93;0.43;;;;;;;27.53;27.11;92819.31;2057377;69;20549;-75
2022/09/12 10:39:37;;;;;;;1.05;0.60;;;;;;;28.72;25.65;92819.72;2058114;69;20613;-73
2022/09/12 10:42:04;;;;;;;3.88;0.88;;;;;;;29.22;26.09;92814.34;2057640;69;20169;-74
2022/09/12 10:44:33;;;;;;;0.80;0.43;;;;;;;30.27;25.80;92817.78;2056000;69;20162;-75
2022/09/12 10:47:19;;;;;;;1.63;0.35;;;;;;;29.70;25.71;92810.38;2049185;70;20253;-74
2022/09/12 10:49:44;;;;;;;2.78;0.50;;;;;;;31.29;25.27;92813.56;2043907;70;20167;-75
2022/09/12 10:52:16;;;;;;;1.70;0.50;;;;;;;31.68;24.67;92802.03;2049957;70;20249;-75
2022/09/12 10:54:42;;;;;;;1.98;0.80;;;;;;;30.93;24.02;92803.16;2050186;70;20158;-73
2022/09/12 10:57:42;;;;;;;0.50;0.45;;;;;;;33.41;22.08;92800.78;2050241;70;20213;-74
2022/09/12 11:00:16;;;;;;;0.88;0.52;;;;;;;34.46;20.39;92799.59;2048079;70;20154;-75
2022/09/12 11:03:02;;;;;;;1.30;0.50;;;;;;;35.88;20.87;92799.72;2049981;70;20177;-75
2022/09/12 11:05:43;;;;;;;3.53;0.70;;;;;;;38.24;20.07;92804.09;2050504;70;20658;-75
2022/09/12 11:08:22;;;;;;;2.92;0.60;;;;;;;39.21;19.02;92804.97;2050390;70;20162;-76
2022/09/12 11:10:56;;;;;;;0.70;0.40;;;;;;;39.54;18.23;92795.34;2049904;70;20302;-75
2022/09/12 11:13:40;;;;;;;1.00;0.43;;;;;;;40.22;18.02;92798.66;2050057;70;20626;-73
2022/09/12 11:16:44;;;;;;;0.90;0.60;;;;;;;40.61;17.07;92797.41;2047040;70;20210;-73
2022/09/12 11:19:15;;;;;;;2.35;0.75;;;;;;;40.01;16.72;92795.31;2050442;70;20507;-74
2022/09/12 11:22:09;;;;;;;0.90;0.55;;;;;;;40.76;16.05;92790.75;2049654;70;20180;-74
2022/09/12 11:25:11;;;;;;;1.52;0.60;;;;;;;43.43;15.84;92793.16;2050533;70;20283;-76
2022/09/12 11:28:02;;;;;;;1.55;0.70;;;;;;;43.81;15.30;92795.22;2049779;70;20180;-76
2022/09/12 11:30:36;;;;;;;2.30;0.40;;;;;;;41.50;16.51;92787.53;2044997;70;20166;-76
2022/09/12 11:33:23;;;;;;;2.97;0.70;;;;;;;41.51;15.50;92783.75;2049904;70;20674;-75
2022/09/12 11:35:50;;;;;;;1.13;0.50;;;;;;;41.38;16.69;92771.22;2043919;70;20224;-77
2022/09/12 11:38:37;;;;;;;3.50;0.70;;;;;;;42.05;16.16;92776.28;2040659;70;20194;-76
2022/09/12 11:41:10;;;;;;;1.45;0.50;;;;;;;39.80;15.98;92763.19;2045724;70;20158;-76
2022/09/12 11:43:48;;;;;;;1.98;0.70;;;;;;;43.28;15.98;92760.75;2050670;70;20205;-76
2022/09/12 11:46:22;;;;;;;2.60;0.52;;;;;;;42.98;14.88;92760.41;2050389;70;20233;-76
2022/09/12 11:48:58;;;;;;;3.17;0.60;;;;;;;44.00;14.50;92759.16;2050158;70;20169;-77
2022/09/12 11:51:30;;;;;;;3.60;0.73;;;;;;;42.83;13.90;92745.75;2049296;70;20281;-76
2022/09/12 11:54:24;;;;;;;0.95;0.40;;;;;;;39.84;15.23;92742.34;2046652;70;20245;-78
2022/09/12 11:56:59;;;;;;;2.20;0.80;;;;;;;41.53;14.25;92747.50;2044958;70;20622;-77
2022/09/12 11:59:39;;;;;;;2.67;0.90;;;;;;;42.82;14.34;92744.34;2050490;70;20138;-76